createdAt,value
2023-03-04T00:00:03.431Z,15.54
2023-03-04T00:03:00.407Z,15.54
2023-03-04T00:05:50.648Z,15.53
2023-03-04T00:08:40.381Z,15.53
2023-03-04T00:11:30.316Z,15.51
2023-03-04T00:14:21.046Z,15.49
2023-03-04T00:17:11.237Z,15.48
2023-03-04T00:20:01.620Z,15.47
2023-03-04T00:22:51.378Z,15.47
2023-03-04T00:25:43.573Z,15.48
2023-03-04T00:28:33.720Z,15.45
2023-03-04T00:31:23.867Z,15.43
2023-03-04T00:34:13.510Z,15.43
2023-03-04T00:37:04.330Z,15.45
2023-03-04T00:39:54.581Z,15.48
2023-03-04T00:42:44.674Z,15.51
2023-03-04T00:45:35.264Z,15.52
2023-03-04T00:48:25.113Z,15.54
2023-03-04T00:51:15.586Z,15.55
2023-03-04T00:54:06.213Z,15.56
2023-03-04T00:56:56.973Z,15.56
2023-03-04T00:59:47.150Z,15.53
2023-03-04T01:02:37.753Z,15.52
2023-03-04T01:05:28.019Z,15.51
2023-03-04T01:08:18.611Z,15.49
2023-03-04T01:11:10.069Z,15.47
2023-03-04T01:14:00.418Z,15.45
2023-03-04T01:16:50.306Z,15.45
2023-03-04T01:19:40.675Z,15.47
2023-03-04T01:22:31.064Z,15.46
2023-03-04T01:25:21.071Z,15.45
2023-03-04T01:28:11.777Z,15.43
2023-03-04T01:31:01.994Z,15.42
2023-03-04T01:33:52.355Z,15.39
2023-03-04T01:36:42.199Z,15.37
2023-03-04T01:39:31.942Z,15.35
2023-03-04T01:42:24.780Z,15.33
2023-03-04T01:45:18.430Z,15.32
2023-03-04T01:48:10.597Z,15.31
2023-03-04T01:51:03.232Z,15.29
2023-03-04T01:53:55.261Z,15.27
2023-03-04T01:56:48.318Z,15.25
2023-03-04T01:59:40.094Z,15.24
2023-03-04T02:02:30.126Z,15.22
2023-03-04T02:05:20.594Z,15.19
2023-03-04T02:08:11.765Z,15.17
2023-03-04T02:11:02.206Z,15.16
2023-03-04T02:13:53.060Z,15.15
2023-03-04T02:16:44.455Z,15.13
2023-03-04T02:19:46.274Z,15.12
2023-03-04T02:22:41.236Z,15.10
2023-03-04T02:25:37.175Z,15.09
2023-03-04T02:28:27.429Z,15.08
2023-03-04T02:31:26.584Z,15.08
2023-03-04T02:34:20.179Z,15.07
2023-03-04T02:37:13.805Z,15.06
2023-03-04T02:40:05.190Z,15.08
2023-03-04T02:42:55.623Z,15.07
2023-03-04T02:45:49.462Z,15.08
2023-03-04T02:48:39.962Z,15.09
2023-03-04T02:51:29.930Z,15.08
2023-03-04T02:54:21.363Z,15.07
2023-03-04T02:57:15.113Z,15.06
2023-03-04T03:00:12.933Z,15.05
2023-03-04T03:03:04.074Z,15.03
2023-03-04T03:05:54.821Z,15.01
2023-03-04T03:08:45.380Z,15.00
2023-03-04T03:11:35.499Z,15.00
2023-03-04T03:14:26.171Z,15.02
2023-03-04T03:17:16.805Z,15.04
2023-03-04T03:20:08.815Z,15.05
2023-03-04T03:22:58.922Z,15.10
2023-03-04T03:25:49.316Z,15.13
2023-03-04T03:28:39.539Z,15.14
2023-03-04T03:31:29.620Z,15.16
2023-03-04T03:34:19.989Z,15.19
2023-03-04T03:37:11.450Z,15.21
2023-03-04T03:40:01.488Z,15.23
2023-03-04T03:42:52.085Z,15.26
2023-03-04T03:45:42.637Z,15.28
2023-03-04T03:48:32.985Z,15.29
2023-03-04T03:51:23.094Z,15.30
2023-03-04T03:54:13.463Z,15.30
2023-03-04T03:57:03.450Z,15.29
2023-03-04T03:59:53.412Z,15.26
2023-03-04T04:02:43.815Z,15.25
2023-03-04T04:05:34.014Z,15.24
2023-03-04T04:08:24.065Z,15.23
2023-03-04T04:11:14.397Z,15.21
2023-03-04T04:14:04.481Z,15.17
2023-03-04T04:16:54.931Z,15.14
2023-03-04T04:19:45.366Z,15.10
2023-03-04T04:22:35.418Z,15.06
2023-03-04T04:25:25.830Z,15.03
2023-03-04T04:28:16.146Z,15.00
2023-03-04T04:31:10.109Z,14.97
2023-03-04T04:34:00.135Z,14.94
2023-03-04T04:36:50.547Z,14.92
2023-03-04T04:39:40.796Z,14.90
2023-03-04T04:42:31.770Z,14.87
2023-03-04T04:45:22.037Z,14.85
2023-03-04T04:48:12.422Z,14.83
2023-03-04T04:51:03.416Z,14.81
2023-03-04T04:53:53.516Z,14.80
2023-03-04T04:56:43.806Z,14.78
2023-03-04T04:59:33.653Z,14.75
2023-03-04T05:02:23.447Z,14.73
2023-03-04T05:05:14.164Z,14.70
2023-03-04T05:08:04.593Z,14.67
2023-03-04T05:10:55.545Z,14.65
2023-03-04T05:13:45.319Z,14.62
2023-03-04T05:16:35.187Z,14.61
2023-03-04T05:19:25.882Z,14.60
2023-03-04T05:22:15.861Z,14.59
2023-03-04T05:25:07.152Z,14.58
2023-03-04T05:27:57.630Z,14.57
2023-03-04T05:30:48.553Z,14.57
2023-03-04T05:33:39.025Z,14.56
2023-03-04T05:36:29.113Z,14.55
2023-03-04T05:39:19.707Z,14.57
2023-03-04T05:42:09.674Z,14.57
2023-03-04T05:45:00.053Z,14.59
2023-03-04T05:47:50.551Z,14.59
2023-03-04T05:50:41.040Z,14.60
2023-03-04T05:53:32.292Z,14.61
2023-03-04T05:56:23.129Z,14.62
2023-03-04T05:59:13.683Z,14.63
2023-03-04T06:02:03.964Z,14.64
2023-03-04T06:04:54.469Z,14.66
2023-03-04T06:07:44.777Z,14.69
2023-03-04T06:10:34.773Z,14.73
2023-03-04T06:13:25.691Z,14.79
2023-03-04T06:16:15.977Z,14.87
2023-03-04T06:19:06.312Z,14.95
2023-03-04T06:21:56.455Z,15.03
2023-03-04T06:24:46.302Z,15.09
2023-03-04T06:27:36.537Z,15.14
2023-03-04T06:30:26.918Z,15.20
2023-03-04T06:33:17.182Z,15.31
2023-03-04T06:36:08.474Z,15.39
2023-03-04T06:38:58.788Z,15.45
2023-03-04T06:41:48.868Z,15.52
2023-03-04T06:44:38.620Z,15.60
2023-03-04T06:47:28.842Z,15.69
2023-03-04T06:50:19.299Z,15.78
2023-03-04T06:53:09.229Z,15.88
2023-03-04T06:55:59.071Z,16.00
2023-03-04T06:58:48.840Z,16.12
2023-03-04T07:01:38.829Z,16.24
2023-03-04T07:04:29.061Z,16.32
2023-03-04T07:07:19.360Z,16.37
2023-03-04T07:10:11.343Z,16.39
2023-03-04T07:13:01.494Z,16.39
2023-03-04T07:15:51.861Z,16.39
2023-03-04T07:18:42.089Z,16.40
2023-03-04T07:21:32.666Z,16.41
2023-03-04T07:24:23.796Z,16.42
2023-03-04T07:27:14.402Z,16.44
2023-03-04T07:30:05.379Z,16.46
2023-03-04T07:32:55.104Z,16.46
2023-03-04T07:35:45.586Z,16.46
2023-03-04T07:38:36.116Z,16.48
2023-03-04T07:41:28.188Z,16.53
2023-03-04T07:44:17.954Z,16.60
2023-03-04T07:47:08.560Z,16.60
2023-03-04T07:49:58.645Z,16.64
2023-03-04T07:52:50.961Z,16.73
2023-03-04T07:55:41.280Z,16.85
2023-03-04T07:58:32.186Z,16.98
2023-03-04T08:01:24.905Z,17.10
2023-03-04T08:04:15.327Z,17.21
2023-03-04T08:07:05.571Z,17.33
2023-03-04T08:09:55.709Z,17.45
2023-03-04T08:12:46.116Z,17.58
2023-03-04T08:15:37.473Z,17.70
2023-03-04T08:18:27.664Z,17.81
2023-03-04T08:21:19.701Z,17.89
2023-03-04T08:24:11.618Z,17.98
2023-03-04T08:27:01.976Z,18.09
2023-03-04T08:29:52.467Z,18.19
2023-03-04T08:32:42.690Z,18.32
2023-03-04T08:35:34.093Z,18.43
2023-03-04T08:38:24.463Z,18.54
2023-03-04T08:41:15.460Z,18.67
2023-03-04T08:44:05.991Z,18.76
2023-03-04T08:46:56.364Z,18.82
2023-03-04T08:49:46.582Z,18.92
2023-03-04T08:52:37.183Z,19.02
2023-03-04T08:55:27.010Z,19.12
2023-03-04T08:58:16.972Z,19.22
2023-03-04T09:01:09.339Z,19.31
2023-03-04T09:03:59.314Z,19.41
2023-03-04T09:06:49.663Z,19.53
2023-03-04T09:09:39.642Z,19.65
2023-03-04T09:12:29.712Z,19.72
2023-03-04T09:15:20.231Z,19.80
2023-03-04T09:18:10.919Z,19.98
2023-03-04T09:21:01.263Z,20.72
2023-03-04T09:23:51.421Z,21.89
2023-03-04T09:26:41.935Z,23.20
2023-03-04T09:29:31.654Z,24.57
2023-03-04T09:32:21.907Z,25.73
2023-03-04T09:35:12.483Z,26.27
2023-03-04T09:38:02.421Z,26.36
2023-03-04T09:40:52.486Z,26.37
2023-03-04T09:43:42.959Z,26.42
2023-03-04T09:46:36.660Z,26.44
2023-03-04T09:49:27.807Z,26.25
2023-03-04T09:52:30.921Z,25.97
2023-03-04T09:55:25.423Z,25.59
2023-03-04T09:58:23.410Z,25.09
2023-03-04T10:01:23.572Z,24.57
2023-03-04T10:04:18.180Z,24.12
2023-03-04T10:07:16.753Z,23.70
2023-03-04T10:10:11.572Z,23.37
2023-03-04T10:13:04.091Z,23.12
2023-03-04T10:15:55.548Z,22.89
2023-03-04T10:18:51.133Z,22.61
2023-03-04T10:21:44.023Z,22.45
2023-03-04T10:24:34.138Z,22.38
2023-03-04T10:27:25.013Z,22.33
2023-03-04T10:30:27.946Z,22.29
2023-03-04T10:33:19.873Z,22.26
2023-03-04T10:36:28.436Z,22.24
2023-03-04T10:39:23.931Z,22.23
2023-03-04T10:42:37.510Z,22.23
2023-03-04T10:45:35.483Z,22.23
2023-03-04T10:48:28.721Z,22.25
2023-03-04T10:51:22.984Z,22.22
2023-03-04T10:54:25.501Z,22.11
2023-03-04T10:57:20.881Z,22.01
2023-03-04T11:00:28.850Z,21.95
2023-03-04T11:03:34.340Z,21.86
2023-03-04T11:06:25.443Z,21.80
2023-03-04T11:09:25.275Z,21.76
2023-03-04T11:12:18.023Z,21.75
2023-03-04T11:15:24.544Z,21.72
2023-03-04T11:18:17.082Z,21.70
2023-03-04T11:21:09.061Z,21.52
2023-03-04T11:24:01.187Z,21.25
2023-03-04T11:26:56.265Z,21.04
2023-03-04T11:29:52.532Z,20.89
2023-03-04T11:32:46.874Z,20.84
2023-03-04T11:35:45.987Z,20.82
2023-03-04T11:38:40.872Z,20.78
2023-03-04T11:41:35.733Z,20.76
2023-03-04T11:44:25.592Z,20.77
2023-03-04T11:47:45.321Z,20.83
2023-03-04T11:50:45.706Z,20.95
2023-03-04T11:53:45.946Z,21.08
2023-03-04T11:56:40.974Z,21.17
2023-03-04T11:59:58.961Z,21.18
2023-03-04T12:03:01.107Z,21.14
2023-03-04T12:06:00.475Z,21.18
2023-03-04T12:09:10.990Z,21.24
2023-03-04T12:12:15.496Z,21.31
2023-03-04T12:15:20.903Z,21.36
2023-03-04T12:18:27.168Z,21.35
2023-03-04T12:21:34.790Z,21.21
2023-03-04T12:24:43.956Z,20.79
2023-03-04T12:27:44.773Z,20.50
2023-03-04T12:31:01.463Z,20.37
2023-03-04T12:34:04.165Z,20.41
2023-03-04T12:37:02.367Z,20.53
2023-03-04T12:40:06.099Z,20.37
2023-03-04T12:43:09.383Z,20.02
2023-03-04T12:46:12.838Z,19.85
2023-03-04T12:49:27.342Z,19.78
2023-03-04T12:52:26.380Z,19.59
2023-03-04T12:55:20.456Z,19.37
2023-03-04T12:58:19.126Z,19.15
2023-03-04T13:01:16.993Z,18.94
2023-03-04T13:04:13.423Z,18.76
2023-03-04T13:07:13.561Z,18.67
2023-03-04T13:10:12.101Z,18.62
2023-03-04T13:13:03.942Z,18.46
2023-03-04T13:16:06.305Z,18.29
2023-03-04T13:18:56.122Z,18.19
2023-03-04T13:21:54.530Z,18.09
2023-03-04T13:24:51.115Z,17.95
2023-03-04T13:27:52.896Z,17.87
2023-03-04T13:31:14.053Z,17.81
2023-03-04T13:34:28.882Z,17.80
2023-03-04T13:37:34.641Z,17.91
2023-03-04T13:40:36.712Z,17.98
2023-03-04T13:43:39.677Z,17.96
2023-03-04T13:46:42.841Z,17.89
2023-03-04T13:49:32.882Z,17.76
2023-03-04T13:52:42.528Z,17.69
2023-03-04T13:55:39.433Z,17.63
2023-03-04T13:58:29.782Z,17.54
2023-03-04T14:01:32.641Z,17.46
2023-03-04T14:04:25.127Z,17.39
2023-03-04T14:07:25.769Z,17.38
2023-03-04T14:10:26.104Z,17.37
2023-03-04T14:13:15.608Z,17.30
2023-03-04T14:16:06.244Z,17.25
2023-03-04T14:19:06.683Z,17.20
2023-03-04T14:21:57.572Z,17.14
2023-03-04T14:25:00.850Z,17.09
2023-03-04T14:27:51.395Z,17.08
2023-03-04T14:30:44.562Z,17.09
2023-03-04T14:33:34.873Z,17.08
2023-03-04T14:36:26.154Z,17.06
2023-03-04T14:39:20.954Z,16.98
2023-03-04T14:42:15.330Z,16.89
2023-03-04T14:45:06.626Z,16.85
2023-03-04T14:48:02.384Z,16.85
2023-03-04T14:50:53.817Z,16.86
2023-03-04T14:53:57.739Z,16.89
2023-03-04T14:56:47.893Z,16.92
2023-03-04T14:59:39.154Z,16.87
2023-03-04T15:02:36.839Z,16.82
2023-03-04T15:05:30.515Z,16.80
2023-03-04T15:08:26.058Z,16.81
2023-03-04T15:11:26.147Z,16.82
2023-03-04T15:14:50.116Z,16.76
2023-03-04T15:17:42.786Z,16.73
2023-03-04T15:20:33.990Z,16.76
2023-03-04T15:23:26.022Z,16.79
2023-03-04T15:26:17.147Z,16.81
2023-03-04T15:29:16.652Z,16.81
2023-03-04T15:32:07.470Z,16.80
2023-03-04T15:34:57.705Z,16.74
2023-03-04T15:37:49.685Z,16.71
2023-03-04T15:40:43.350Z,16.69
2023-03-04T15:43:33.702Z,16.66
2023-03-04T15:46:24.604Z,16.62
2023-03-04T15:49:14.720Z,16.60
2023-03-04T15:52:06.926Z,16.57
2023-03-04T15:54:56.789Z,16.56
2023-03-04T15:57:49.092Z,16.56
2023-03-04T16:00:39.412Z,16.53
2023-03-04T16:03:29.150Z,16.49
2023-03-04T16:06:21.176Z,16.46
2023-03-04T16:09:16.729Z,16.41
2023-03-04T16:12:07.906Z,16.37
2023-03-04T16:14:57.889Z,16.34
2023-03-04T16:17:48.118Z,16.31
2023-03-04T16:20:38.391Z,16.28
2023-03-04T16:23:28.848Z,16.28
2023-03-04T16:26:21.583Z,16.28
2023-03-04T16:29:11.960Z,16.25
2023-03-04T16:32:01.724Z,16.22
2023-03-04T16:34:52.234Z,16.20
2023-03-04T16:37:43.133Z,16.19
2023-03-04T16:40:34.183Z,16.17
2023-03-04T16:43:23.908Z,16.18
2023-03-04T16:46:15.511Z,16.17
2023-03-04T16:49:05.125Z,16.18
2023-03-04T16:51:55.037Z,16.16
2023-03-04T16:54:46.896Z,16.17
2023-03-04T16:57:37.017Z,16.21
2023-03-04T17:00:29.694Z,16.28
2023-03-04T17:03:19.922Z,16.36
2023-03-04T17:06:11.679Z,16.42
2023-03-04T17:09:01.939Z,16.44
2023-03-04T17:11:53.215Z,16.47
2023-03-04T17:14:43.039Z,16.52
2023-03-04T17:17:33.426Z,16.59
2023-03-04T17:20:23.835Z,16.64
2023-03-04T17:23:14.178Z,16.66
2023-03-04T17:26:04.555Z,16.66
2023-03-04T17:28:54.487Z,16.62
2023-03-04T17:31:45.352Z,16.60
2023-03-04T17:34:35.645Z,16.59
2023-03-04T17:37:26.553Z,16.55
2023-03-04T17:40:17.613Z,16.50
2023-03-04T17:43:11.653Z,16.46
2023-03-04T17:46:08.347Z,16.44
2023-03-04T17:49:00.277Z,16.41
2023-03-04T17:51:50.657Z,16.38
2023-03-04T17:54:40.911Z,16.36
2023-03-04T17:57:31.034Z,16.33
2023-03-04T18:00:22.978Z,16.31
2023-03-04T18:03:14.778Z,16.28
2023-03-04T18:06:04.813Z,16.25
2023-03-04T18:08:55.809Z,16.22
2023-03-04T18:11:46.240Z,16.19
2023-03-04T18:14:36.866Z,16.17
2023-03-04T18:17:27.450Z,16.14
2023-03-04T18:20:17.669Z,16.11
2023-03-04T18:23:08.087Z,16.07
2023-03-04T18:25:59.073Z,16.05
2023-03-04T18:28:49.268Z,16.03
2023-03-04T18:31:40.062Z,16.00
2023-03-04T18:34:30.826Z,15.97
2023-03-04T18:37:20.611Z,15.94
2023-03-04T18:40:13.624Z,15.92
2023-03-04T18:43:04.734Z,15.89
2023-03-04T18:46:03.204Z,15.88
2023-03-04T18:48:55.698Z,15.87
2023-03-04T18:51:45.839Z,15.87
2023-03-04T18:54:36.132Z,15.86
2023-03-04T18:57:26.311Z,15.86
2023-03-04T19:00:24.019Z,15.84
2023-03-04T19:03:15.573Z,15.83
2023-03-04T19:06:06.634Z,15.82
2023-03-04T19:08:56.592Z,15.79
2023-03-04T19:11:46.765Z,15.76
2023-03-04T19:14:36.878Z,15.74
2023-03-04T19:17:31.089Z,15.72
2023-03-04T19:20:22.061Z,15.68
2023-03-04T19:23:13.523Z,15.65
2023-03-04T19:26:03.982Z,15.62
2023-03-04T19:28:54.100Z,15.59
2023-03-04T19:31:44.194Z,15.58
2023-03-04T19:34:34.858Z,15.56
2023-03-04T19:37:25.438Z,15.54
2023-03-04T19:40:16.646Z,15.51
2023-03-04T19:43:07.266Z,15.51
2023-03-04T19:45:58.527Z,15.49
2023-03-04T19:48:50.341Z,15.48
2023-03-04T19:51:41.206Z,15.46
2023-03-04T19:54:32.267Z,15.44
2023-03-04T19:57:22.828Z,15.42
2023-03-04T20:00:16.035Z,15.40
2023-03-04T20:03:07.896Z,15.37
2023-03-04T20:06:06.938Z,15.36
2023-03-04T20:08:59.450Z,15.36
2023-03-04T20:11:59.134Z,15.35
2023-03-04T20:14:51.419Z,15.35
2023-03-04T20:17:41.592Z,15.34
2023-03-04T20:20:31.887Z,15.33
2023-03-04T20:23:22.180Z,15.31
2023-03-04T20:26:12.543Z,15.27
2023-03-04T20:29:12.299Z,15.25
2023-03-04T20:32:03.926Z,15.23
2023-03-04T20:34:57.370Z,15.21
2023-03-04T20:37:48.664Z,15.21
2023-03-04T20:40:40.605Z,15.19
2023-03-04T20:43:31.289Z,15.17
2023-03-04T20:46:40.292Z,15.15
2023-03-04T20:49:31.975Z,15.14
2023-03-04T20:52:22.351Z,15.13
2023-03-04T20:55:13.681Z,15.13
2023-03-04T20:58:04.477Z,15.15
2023-03-04T21:00:55.501Z,15.15
2023-03-04T21:03:45.553Z,15.14
2023-03-04T21:06:36.292Z,15.12
2023-03-04T21:09:27.086Z,15.11
2023-03-04T21:12:17.351Z,15.10
2023-03-04T21:15:09.975Z,15.09
2023-03-04T21:17:59.923Z,15.06
2023-03-04T21:20:51.921Z,15.04
2023-03-04T21:23:42.346Z,15.02
2023-03-04T21:26:32.810Z,14.99
2023-03-04T21:29:25.084Z,14.94
2023-03-04T21:32:24.425Z,14.90
2023-03-04T21:35:16.291Z,14.86
2023-03-04T21:38:06.200Z,14.85
2023-03-04T21:40:56.472Z,14.84
2023-03-04T21:43:46.873Z,14.81
2023-03-04T21:46:36.945Z,14.78
2023-03-04T21:49:27.835Z,14.76
2023-03-04T21:52:18.701Z,14.74
2023-03-04T21:55:09.766Z,14.72
2023-03-04T21:58:00.138Z,14.69
2023-03-04T22:00:52.051Z,14.65
2023-03-04T22:03:42.363Z,14.62
2023-03-04T22:06:34.513Z,14.60
2023-03-04T22:09:24.913Z,14.58
2023-03-04T22:12:17.025Z,14.57
2023-03-04T22:15:12.477Z,14.55
2023-03-04T22:18:02.880Z,14.54
2023-03-04T22:20:53.694Z,14.53
2023-03-04T22:23:43.621Z,14.51
2023-03-04T22:26:33.789Z,14.51
2023-03-04T22:29:24.095Z,14.50
2023-03-04T22:32:15.212Z,14.49
2023-03-04T22:35:05.505Z,14.47
2023-03-04T22:37:55.362Z,14.45
2023-03-04T22:40:45.547Z,14.43
2023-03-04T22:43:36.146Z,14.40
2023-03-04T22:46:28.310Z,14.37
2023-03-04T22:49:18.935Z,14.34
2023-03-04T22:52:09.030Z,14.33
2023-03-04T22:54:59.614Z,14.32
2023-03-04T22:57:49.539Z,14.29
2023-03-04T23:00:40.960Z,14.26
2023-03-04T23:03:31.482Z,14.25
2023-03-04T23:06:25.469Z,14.23
2023-03-04T23:09:15.945Z,14.22
2023-03-04T23:12:06.040Z,14.22
2023-03-04T23:14:56.203Z,14.22
2023-03-04T23:17:48.026Z,14.23
2023-03-04T23:20:42.206Z,14.23
2023-03-04T23:23:32.092Z,14.23
2023-03-04T23:26:24.568Z,14.22
2023-03-04T23:29:17.039Z,14.20
2023-03-04T23:32:08.320Z,14.18
2023-03-04T23:34:58.164Z,14.16
2023-03-04T23:37:50.073Z,14.15
2023-03-04T23:40:40.123Z,14.14
2023-03-04T23:43:32.045Z,14.12
2023-03-04T23:46:23.220Z,14.10
2023-03-04T23:49:17.132Z,14.09
2023-03-04T23:52:08.253Z,14.09
2023-03-04T23:54:58.788Z,14.07
2023-03-04T23:57:49.788Z,14.06
